createdAt,value
2023-02-25T00:00:53.965Z,17.42
2023-02-25T00:02:04.128Z,21.85
2023-02-25T00:03:07.279Z,21.08
2023-02-25T00:04:09.841Z,17.83
2023-02-25T00:05:12.651Z,16.58
2023-02-25T00:06:16.323Z,21.75
2023-02-25T00:07:19.680Z,16.88
2023-02-25T00:08:22.095Z,18.40
2023-02-25T00:09:24.699Z,16.48
2023-02-25T00:10:27.844Z,17.58
2023-02-25T00:11:31.178Z,14.30
2023-02-25T00:12:34.271Z,15.05
2023-02-25T00:13:41.385Z,15.35
2023-02-25T00:14:51.061Z,14.75
2023-02-25T00:16:14.183Z,16.95
2023-02-25T00:17:22.965Z,13.50
2023-02-25T00:18:31.026Z,14.23
2023-02-25T00:19:33.704Z,15.15
2023-02-25T00:20:42.902Z,14.05
2023-02-25T00:21:57.089Z,16.38
2023-02-25T00:23:01.151Z,11.18
2023-02-25T00:24:16.657Z,14.45
2023-02-25T00:25:19.998Z,12.68
2023-02-25T00:26:26.289Z,10.18
2023-02-25T00:27:40.604Z,13.63
2023-02-25T00:28:50.165Z,11.68
2023-02-25T00:29:54.463Z,11.13
2023-02-25T00:30:57.054Z,12.98
2023-02-25T00:32:00.607Z,11.13
2023-02-25T00:33:16.584Z,11.05
2023-02-25T00:34:26.300Z,11.23
2023-02-25T00:35:41.270Z,13.23
2023-02-25T00:36:55.262Z,12.18
2023-02-25T00:38:25.913Z,12.77
2023-02-25T00:39:44.384Z,13.20
2023-02-25T00:40:59.861Z,10.50
2023-02-25T00:42:09.408Z,11.50
2023-02-25T00:43:11.841Z,10.40
2023-02-25T00:44:25.165Z,9.98
2023-02-25T00:45:31.121Z,10.43
2023-02-25T00:46:41.310Z,8.43
2023-02-25T00:47:50.207Z,8.43
2023-02-25T00:49:01.387Z,8.60
2023-02-25T00:50:06.628Z,7.45
2023-02-25T00:51:25.713Z,7.63
2023-02-25T00:52:32.603Z,8.35
2023-02-25T00:53:35.306Z,8.88
2023-02-25T00:54:51.357Z,7.75
2023-02-25T00:56:06.705Z,8.25
2023-02-25T00:57:09.552Z,7.30
2023-02-25T00:58:12.084Z,7.25
2023-02-25T00:59:22.356Z,8.73
2023-02-25T01:00:24.997Z,5.22
2023-02-25T01:01:34.472Z,5.13
2023-02-25T01:02:40.269Z,13.27
2023-02-25T01:03:43.018Z,6.55
2023-02-25T01:04:50.263Z,7.05
2023-02-25T01:05:53.779Z,6.85
2023-02-25T01:07:03.620Z,6.45
2023-02-25T01:08:11.009Z,6.80
2023-02-25T01:09:16.122Z,6.43
2023-02-25T01:10:22.900Z,6.90
2023-02-25T01:11:32.196Z,6.55
2023-02-25T01:12:38.664Z,7.85
2023-02-25T01:13:44.091Z,5.97
2023-02-25T01:15:15.708Z,6.20
2023-02-25T01:16:22.031Z,6.00
2023-02-25T01:17:30.437Z,7.15
2023-02-25T01:18:35.268Z,6.25
2023-02-25T01:19:37.760Z,6.25
2023-02-25T01:20:42.766Z,4.63
2023-02-25T01:21:48.200Z,6.70
2023-02-25T01:22:50.519Z,6.20
2023-02-25T01:24:10.413Z,5.50
2023-02-25T01:25:17.397Z,5.30
2023-02-25T01:26:20.778Z,7.28
2023-02-25T01:27:29.124Z,6.43
2023-02-25T01:28:34.113Z,8.60
2023-02-25T01:29:45.619Z,5.32
2023-02-25T01:30:50.884Z,4.97
2023-02-25T01:31:59.081Z,7.10
2023-02-25T01:33:01.691Z,5.43
2023-02-25T01:34:06.395Z,5.47
2023-02-25T01:35:09.060Z,5.53
2023-02-25T01:36:11.571Z,3.58
2023-02-25T01:37:15.788Z,5.82
2023-02-25T01:38:20.656Z,8.65
2023-02-25T01:39:26.897Z,5.82
2023-02-25T01:40:31.446Z,6.97
2023-02-25T01:41:36.289Z,6.95
2023-02-25T01:42:39.331Z,5.90
2023-02-25T01:43:41.918Z,5.30
2023-02-25T01:45:21.070Z,5.97
2023-02-25T01:46:26.033Z,4.35
2023-02-25T01:47:30.770Z,3.92
2023-02-25T01:48:36.852Z,5.07
2023-02-25T01:49:46.307Z,4.40
2023-02-25T01:51:02.999Z,5.20
2023-02-25T01:52:09.944Z,4.85
2023-02-25T01:53:15.692Z,3.58
2023-02-25T01:54:19.571Z,4.47
2023-02-25T01:55:23.087Z,3.70
2023-02-25T01:56:27.594Z,3.22
2023-02-25T01:57:31.777Z,5.72
2023-02-25T01:58:34.746Z,5.22
2023-02-25T01:59:38.939Z,3.90
2023-02-25T02:00:41.759Z,5.97
2023-02-25T02:01:51.936Z,4.20
2023-02-25T02:02:57.165Z,5.10
2023-02-25T02:04:09.296Z,4.90
2023-02-25T02:05:15.350Z,4.45
2023-02-25T02:06:40.029Z,4.00
2023-02-25T02:07:43.109Z,5.57
2023-02-25T02:08:48.157Z,3.55
2023-02-25T02:10:04.495Z,3.35
2023-02-25T02:11:09.763Z,4.63
2023-02-25T02:12:14.146Z,3.38
2023-02-25T02:13:20.501Z,4.22
2023-02-25T02:14:29.317Z,3.90
2023-02-25T02:15:38.075Z,4.28
2023-02-25T02:17:10.181Z,4.65
2023-02-25T02:18:12.983Z,10.25
2023-02-25T02:19:51.989Z,13.40
2023-02-25T02:21:10.113Z,13.23
2023-02-25T02:22:40.118Z,10.68
2023-02-25T02:24:00.839Z,5.45
2023-02-25T02:25:25.895Z,6.03
2023-02-25T02:26:43.642Z,6.00
2023-02-25T02:28:07.214Z,3.90
2023-02-25T02:29:17.975Z,5.60
2023-02-25T02:31:08.354Z,3.30
2023-02-25T02:32:32.557Z,4.85
2023-02-25T02:34:08.942Z,129.85
2023-02-25T02:35:14.376Z,102.47
2023-02-25T02:36:32.976Z,42.10
2023-02-25T02:37:42.290Z,60.60
2023-02-25T02:39:04.819Z,61.63
2023-02-25T02:40:39.011Z,28.50
2023-02-25T02:41:57.767Z,22.15
2023-02-25T02:43:30.164Z,15.07
2023-02-25T02:44:58.844Z,16.65
2023-02-25T02:46:47.659Z,11.23
2023-02-25T02:47:58.836Z,10.43
2023-02-25T02:49:05.353Z,11.13
2023-02-25T02:50:20.906Z,7.65
2023-02-25T02:51:28.511Z,8.27
2023-02-25T02:52:35.220Z,6.20
2023-02-25T02:53:47.171Z,8.38
2023-02-25T02:54:54.821Z,6.40
2023-02-25T02:56:00.746Z,7.30
2023-02-25T02:57:04.694Z,6.47
2023-02-25T02:58:13.470Z,5.40
2023-02-25T02:59:24.609Z,4.85
2023-02-25T03:00:33.836Z,3.88
2023-02-25T03:01:46.234Z,5.18
2023-02-25T03:03:03.250Z,3.80
2023-02-25T03:04:11.495Z,4.20
2023-02-25T03:05:18.881Z,3.08
2023-02-25T03:06:26.175Z,3.92
2023-02-25T03:07:32.342Z,10.90
2023-02-25T03:08:46.589Z,7.28
2023-02-25T03:09:56.344Z,5.38
2023-02-25T03:10:59.601Z,3.88
2023-02-25T03:12:02.258Z,21.65
2023-02-25T03:13:07.930Z,11.93
2023-02-25T03:14:12.940Z,52.83
2023-02-25T03:15:15.584Z,106.55
2023-02-25T03:16:56.413Z,70.28
2023-02-25T03:18:06.752Z,29.00
2023-02-25T03:19:32.714Z,15.80
2023-02-25T03:20:42.672Z,11.52
2023-02-25T03:21:58.134Z,8.48
2023-02-25T03:23:05.688Z,6.43
2023-02-25T03:24:13.847Z,6.35
2023-02-25T03:25:24.883Z,8.18
2023-02-25T03:26:32.278Z,3.85
2023-02-25T03:27:42.094Z,3.88
2023-02-25T03:28:46.168Z,4.63
2023-02-25T03:29:48.809Z,3.05
2023-02-25T03:30:56.787Z,3.15
2023-02-25T03:32:10.384Z,2.60
2023-02-25T03:33:47.995Z,3.20
2023-02-25T03:34:57.453Z,1.48
2023-02-25T03:36:03.434Z,6.13
2023-02-25T03:37:16.706Z,2.20
2023-02-25T03:38:22.536Z,3.22
2023-02-25T03:39:29.476Z,28.80
2023-02-25T03:40:33.947Z,49.58
2023-02-25T03:41:42.127Z,36.92
2023-02-25T03:42:53.065Z,18.85
2023-02-25T03:43:57.823Z,79.75
2023-02-25T03:45:04.985Z,137.52
2023-02-25T03:46:08.396Z,147.38
2023-02-25T03:47:12.880Z,203.07
2023-02-25T03:48:19.021Z,140.40
2023-02-25T03:49:36.748Z,126.75
2023-02-25T03:50:46.890Z,90.97
2023-02-25T03:51:50.636Z,78.47
2023-02-25T03:52:53.054Z,72.00
2023-02-25T03:54:16.634Z,60.42
2023-02-25T03:55:21.307Z,58.72
2023-02-25T03:56:24.146Z,44.53
2023-02-25T03:57:36.254Z,44.65
2023-02-25T03:58:41.895Z,34.78
2023-02-25T03:59:46.632Z,36.03
2023-02-25T04:00:54.438Z,37.00
2023-02-25T04:01:58.613Z,33.38
2023-02-25T04:03:01.520Z,30.13
2023-02-25T04:04:04.828Z,27.92
2023-02-25T04:05:07.665Z,24.38
2023-02-25T04:06:12.374Z,25.30
2023-02-25T04:07:14.876Z,26.25
2023-02-25T04:08:17.190Z,25.98
2023-02-25T04:09:20.870Z,22.63
2023-02-25T04:10:23.879Z,25.02
2023-02-25T04:11:26.347Z,22.77
2023-02-25T04:12:28.662Z,23.67
2023-02-25T04:13:31.187Z,21.70
2023-02-25T04:14:33.657Z,23.38
2023-02-25T04:15:36.956Z,21.45
2023-02-25T04:16:39.574Z,22.52
2023-02-25T04:17:42.905Z,22.25
2023-02-25T04:18:46.135Z,31.20
2023-02-25T04:19:48.654Z,20.50
2023-02-25T04:20:52.129Z,18.23
2023-02-25T04:21:54.528Z,20.58
2023-02-25T04:22:56.954Z,21.25
2023-02-25T04:24:00.079Z,22.70
2023-02-25T04:25:05.162Z,19.35
2023-02-25T04:26:07.389Z,83.70
2023-02-25T04:27:09.916Z,128.40
2023-02-25T04:28:12.309Z,92.30
2023-02-25T04:29:14.940Z,97.30
2023-02-25T04:30:17.820Z,92.45
2023-02-25T04:31:21.209Z,95.20
2023-02-25T04:32:23.812Z,85.82
2023-02-25T04:33:26.308Z,77.28
2023-02-25T04:34:29.324Z,76.43
2023-02-25T04:35:32.432Z,71.45
2023-02-25T04:36:36.204Z,65.03
2023-02-25T04:37:40.018Z,57.53
2023-02-25T04:38:42.394Z,53.60
2023-02-25T04:39:44.812Z,52.50
2023-02-25T04:40:47.150Z,45.78
2023-02-25T04:41:49.737Z,47.03
2023-02-25T04:42:52.166Z,41.65
2023-02-25T04:43:54.433Z,38.15
2023-02-25T04:44:56.748Z,38.10
2023-02-25T04:45:59.175Z,36.00
2023-02-25T04:47:01.598Z,34.78
2023-02-25T04:48:04.119Z,36.80
2023-02-25T04:49:09.399Z,34.97
2023-02-25T04:50:12.764Z,29.23
2023-02-25T04:51:15.923Z,28.88
2023-02-25T04:52:18.306Z,32.22
2023-02-25T04:53:20.816Z,29.27
2023-02-25T04:54:23.154Z,31.42
2023-02-25T04:55:25.620Z,30.92
2023-02-25T04:56:28.417Z,30.90
2023-02-25T04:57:30.735Z,32.25
2023-02-25T04:58:35.284Z,30.13
2023-02-25T04:59:37.799Z,27.20
2023-02-25T05:00:47.427Z,29.08
2023-02-25T05:01:50.001Z,26.42
2023-02-25T05:02:52.415Z,28.15
2023-02-25T05:03:56.944Z,28.85
2023-02-25T05:04:59.489Z,25.98
2023-02-25T05:06:02.312Z,26.05
2023-02-25T05:07:06.220Z,25.08
2023-02-25T05:08:08.500Z,26.55
2023-02-25T05:09:10.829Z,26.15
2023-02-25T05:10:15.271Z,25.77
2023-02-25T05:11:19.344Z,26.25
2023-02-25T05:12:21.660Z,22.80
2023-02-25T05:13:24.108Z,25.45
2023-02-25T05:14:26.736Z,21.38
2023-02-25T05:15:30.847Z,36.75
2023-02-25T05:16:33.678Z,50.10
2023-02-25T05:17:36.244Z,44.78
2023-02-25T05:18:42.985Z,68.20
2023-02-25T05:19:45.342Z,68.15
2023-02-25T05:20:48.167Z,45.85
2023-02-25T05:21:51.815Z,45.03
2023-02-25T05:22:54.279Z,46.40
2023-02-25T05:23:56.721Z,45.92
2023-02-25T05:24:59.048Z,36.78
2023-02-25T05:26:02.380Z,34.13
2023-02-25T05:27:09.150Z,28.05
2023-02-25T05:28:12.230Z,28.48
2023-02-25T05:29:14.754Z,28.17
2023-02-25T05:30:17.434Z,28.63
2023-02-25T05:31:19.958Z,27.17
2023-02-25T05:32:22.386Z,28.67
2023-02-25T05:33:24.884Z,26.42
2023-02-25T05:34:27.285Z,27.17
2023-02-25T05:35:29.757Z,24.98
2023-02-25T05:36:32.213Z,24.30
2023-02-25T05:37:36.073Z,26.58
2023-02-25T05:38:38.991Z,23.35
2023-02-25T05:39:41.620Z,25.83
2023-02-25T05:40:43.976Z,27.75
2023-02-25T05:41:47.226Z,30.48
2023-02-25T05:42:49.742Z,27.92
2023-02-25T05:43:52.154Z,26.80
2023-02-25T05:44:55.036Z,26.65
2023-02-25T05:45:59.062Z,23.92
2023-02-25T05:47:01.947Z,28.42
2023-02-25T05:48:04.492Z,27.83
2023-02-25T05:49:07.033Z,30.08
2023-02-25T05:50:10.323Z,26.42
2023-02-25T05:51:18.977Z,24.23
2023-02-25T05:52:21.379Z,26.08
2023-02-25T05:53:23.680Z,23.58
2023-02-25T05:54:26.100Z,24.65
2023-02-25T05:55:28.751Z,26.70
2023-02-25T05:56:32.348Z,24.00
2023-02-25T05:57:35.090Z,25.83
2023-02-25T05:58:38.176Z,24.85
2023-02-25T05:59:40.475Z,23.15
2023-02-25T06:00:43.730Z,24.65
2023-02-25T06:01:46.173Z,22.65
2023-02-25T06:02:48.784Z,20.25
2023-02-25T06:03:52.371Z,23.35
2023-02-25T06:04:54.863Z,24.33
2023-02-25T06:05:57.263Z,24.23
2023-02-25T06:06:59.597Z,27.08
2023-02-25T06:08:02.128Z,21.63
2023-02-25T06:09:06.174Z,22.70
2023-02-25T06:10:09.342Z,27.23
2023-02-25T06:11:15.873Z,23.55
2023-02-25T06:12:18.164Z,21.38
2023-02-25T06:13:20.483Z,21.75
2023-02-25T06:14:23.008Z,24.20
2023-02-25T06:15:25.610Z,23.08
2023-02-25T06:16:31.956Z,26.85
2023-02-25T06:17:34.773Z,27.13
2023-02-25T06:18:37.186Z,24.75
2023-02-25T06:19:39.633Z,25.55
2023-02-25T06:20:42.034Z,23.90
2023-02-25T06:21:44.390Z,22.67
2023-02-25T06:22:46.942Z,21.50
2023-02-25T06:23:52.381Z,20.83
2023-02-25T06:24:54.762Z,22.30
2023-02-25T06:25:58.678Z,21.63
2023-02-25T06:27:00.993Z,28.08
2023-02-25T06:28:03.518Z,24.73
2023-02-25T06:29:05.897Z,28.00
2023-02-25T06:30:09.080Z,18.35
2023-02-25T06:31:14.217Z,22.73
2023-02-25T06:32:17.459Z,18.98
2023-02-25T06:33:19.936Z,24.20
2023-02-25T06:34:22.341Z,20.30
2023-02-25T06:35:25.144Z,20.80
2023-02-25T06:36:27.619Z,32.72
2023-02-25T06:37:30.024Z,28.83
2023-02-25T06:38:34.008Z,28.25
2023-02-25T06:39:36.396Z,28.65
2023-02-25T06:40:38.862Z,27.55
2023-02-25T06:41:41.556Z,30.63
2023-02-25T06:42:43.915Z,33.20
2023-02-25T06:43:51.801Z,27.27
2023-02-25T06:44:54.172Z,30.98
2023-02-25T06:45:56.622Z,29.75
2023-02-25T06:46:59.096Z,32.38
2023-02-25T06:48:01.473Z,33.05
2023-02-25T06:49:03.869Z,29.98
2023-02-25T06:50:07.141Z,28.88
2023-02-25T06:51:10.432Z,28.35
2023-02-25T06:52:12.762Z,27.08
2023-02-25T06:53:15.231Z,29.38
2023-02-25T06:54:18.296Z,26.63
2023-02-25T06:55:20.724Z,26.85
2023-02-25T06:56:23.656Z,27.17
2023-02-25T06:57:27.031Z,26.00
2023-02-25T06:58:29.448Z,28.48
2023-02-25T06:59:31.872Z,28.25
2023-02-25T07:00:34.347Z,25.20
2023-02-25T07:01:37.799Z,28.98
2023-02-25T07:02:40.154Z,28.55
2023-02-25T07:03:46.015Z,25.73
2023-02-25T07:04:48.342Z,33.17
2023-02-25T07:05:50.817Z,27.73
2023-02-25T07:06:53.192Z,29.30
2023-02-25T07:07:58.891Z,22.05
2023-02-25T07:09:01.249Z,24.23
2023-02-25T07:10:04.481Z,24.50
2023-02-25T07:11:18.778Z,21.92
2023-02-25T07:12:21.132Z,23.60
2023-02-25T07:13:23.550Z,26.25
2023-02-25T07:14:26.155Z,33.25
2023-02-25T07:15:28.482Z,30.00
2023-02-25T07:16:31.260Z,32.38
2023-02-25T07:17:33.584Z,35.42
2023-02-25T07:18:36.241Z,35.75
2023-02-25T07:19:38.732Z,31.08
2023-02-25T07:20:41.201Z,27.35
2023-02-25T07:21:44.701Z,30.17
2023-02-25T07:22:47.064Z,29.60
2023-02-25T07:23:50.435Z,33.10
2023-02-25T07:24:52.897Z,28.00
2023-02-25T07:25:55.403Z,29.17
2023-02-25T07:26:57.798Z,22.88
2023-02-25T07:28:00.253Z,24.88
2023-02-25T07:29:04.930Z,27.77
2023-02-25T07:30:08.960Z,28.67
2023-02-25T07:31:19.250Z,30.13
2023-02-25T07:32:24.686Z,29.45
2023-02-25T07:33:28.713Z,27.50
2023-02-25T07:34:31.351Z,27.98
2023-02-25T07:35:34.442Z,27.98
2023-02-25T07:36:37.954Z,25.88
2023-02-25T07:37:40.541Z,26.20
2023-02-25T07:38:42.950Z,29.75
2023-02-25T07:39:47.643Z,26.58
2023-02-25T07:40:50.548Z,29.50
2023-02-25T07:41:52.942Z,33.65
2023-02-25T07:42:55.900Z,26.15
2023-02-25T07:43:59.537Z,25.85
2023-02-25T07:45:03.207Z,26.48
2023-02-25T07:46:06.818Z,27.80
2023-02-25T07:47:09.582Z,26.92
2023-02-25T07:48:12.032Z,23.80
2023-02-25T07:49:19.502Z,25.30
2023-02-25T07:50:30.942Z,23.33
2023-02-25T07:52:42.958Z,25.17
2023-02-25T07:53:49.742Z,23.92
2023-02-25T07:54:52.610Z,25.15
2023-02-25T07:55:55.423Z,25.40
2023-02-25T07:56:58.282Z,25.42
2023-02-25T07:58:02.335Z,27.42
2023-02-25T07:59:05.137Z,21.17
2023-02-25T08:00:27.909Z,23.27
2023-02-25T08:01:34.559Z,22.38
2023-02-25T08:02:38.330Z,24.58
2023-02-25T08:03:41.598Z,24.95
2023-02-25T08:04:44.149Z,24.45
2023-02-25T08:05:51.963Z,25.48
2023-02-25T08:06:55.326Z,22.70
2023-02-25T08:07:57.858Z,22.20
2023-02-25T08:09:00.458Z,23.60
2023-02-25T08:10:04.411Z,26.92
2023-02-25T08:11:09.403Z,23.55
2023-02-25T08:12:12.060Z,28.02
2023-02-25T08:13:14.832Z,22.98
2023-02-25T08:14:21.755Z,27.60
2023-02-25T08:15:24.302Z,23.42
2023-02-25T08:16:27.520Z,22.58
2023-02-25T08:17:34.549Z,25.95
2023-02-25T08:18:40.042Z,23.40
2023-02-25T08:19:43.457Z,25.35
2023-02-25T08:20:47.461Z,23.45
2023-02-25T08:21:49.949Z,24.65
2023-02-25T08:22:52.492Z,20.98
2023-02-25T08:23:55.069Z,22.02
2023-02-25T08:24:57.850Z,27.15
2023-02-25T08:26:00.850Z,20.50
2023-02-25T08:27:03.441Z,25.88
2023-02-25T08:28:05.961Z,22.15
2023-02-25T08:29:08.355Z,20.77
2023-02-25T08:30:11.376Z,23.65
2023-02-25T08:31:14.152Z,30.25
2023-02-25T08:32:17.122Z,21.70
2023-02-25T08:33:21.326Z,22.65
2023-02-25T08:34:23.739Z,24.17
2023-02-25T08:35:26.474Z,21.80
2023-02-25T08:36:31.300Z,21.48
2023-02-25T08:37:33.899Z,21.70
2023-02-25T08:38:38.275Z,19.77
2023-02-25T08:39:40.755Z,28.90
2023-02-25T08:40:43.451Z,27.52
2023-02-25T08:41:46.019Z,23.58
2023-02-25T08:42:48.553Z,21.98
2023-02-25T08:43:54.283Z,22.35
2023-02-25T08:44:56.850Z,21.50
2023-02-25T08:46:01.221Z,25.63
2023-02-25T08:47:05.175Z,26.25
2023-02-25T08:48:09.767Z,22.92
2023-02-25T08:49:13.526Z,21.40
2023-02-25T08:50:17.993Z,21.17
2023-02-25T08:51:23.165Z,20.38
2023-02-25T08:52:25.779Z,20.83
2023-02-25T08:53:28.766Z,24.10
2023-02-25T08:54:31.340Z,24.35
2023-02-25T08:55:35.848Z,23.30
2023-02-25T08:56:44.120Z,23.48
2023-02-25T08:57:47.000Z,23.85
2023-02-25T08:58:49.490Z,22.75
2023-02-25T08:59:51.837Z,21.35
2023-02-25T09:00:55.138Z,23.17
2023-02-25T09:01:58.780Z,22.52
2023-02-25T09:03:01.945Z,22.83
2023-02-25T09:04:04.669Z,24.00
2023-02-25T09:05:07.992Z,20.55
2023-02-25T09:06:12.725Z,20.88
2023-02-25T09:07:16.325Z,26.13
2023-02-25T09:08:18.949Z,23.65
2023-02-25T09:09:22.406Z,25.13
2023-02-25T09:10:25.005Z,22.42
2023-02-25T09:11:27.795Z,19.80
2023-02-25T09:12:30.883Z,28.98
2023-02-25T09:13:33.293Z,21.60
2023-02-25T09:14:36.398Z,20.80
2023-02-25T09:15:39.958Z,23.33
2023-02-25T09:16:42.497Z,19.83
2023-02-25T09:17:44.982Z,23.30
2023-02-25T09:18:49.113Z,23.15
2023-02-25T09:19:51.831Z,21.25
2023-02-25T09:20:54.332Z,21.25
2023-02-25T09:21:56.675Z,20.63
2023-02-25T09:22:59.652Z,19.00
2023-02-25T09:24:02.128Z,20.65
2023-02-25T09:25:06.153Z,19.25
2023-02-25T09:26:09.017Z,21.40
2023-02-25T09:27:11.849Z,20.08
2023-02-25T09:28:14.430Z,23.33
2023-02-25T09:29:17.219Z,19.27
2023-02-25T09:30:19.680Z,19.92
2023-02-25T09:31:22.766Z,20.65
2023-02-25T09:32:25.729Z,20.15
2023-02-25T09:33:30.369Z,22.30
2023-02-25T09:34:33.937Z,26.08
2023-02-25T09:35:36.272Z,18.88
2023-02-25T09:36:39.186Z,19.52
2023-02-25T09:37:41.542Z,17.75
2023-02-25T09:38:46.257Z,21.52
2023-02-25T09:39:48.581Z,21.17
2023-02-25T09:40:51.780Z,19.27
2023-02-25T09:42:00.497Z,20.45
2023-02-25T09:43:31.432Z,18.95
2023-02-25T09:44:40.756Z,20.08
2023-02-25T09:45:47.262Z,17.58
2023-02-25T09:46:58.491Z,21.45
2023-02-25T09:48:06.152Z,19.95
2023-02-25T09:49:20.428Z,19.50
2023-02-25T09:50:28.216Z,19.27
2023-02-25T09:51:41.790Z,18.30
2023-02-25T09:53:01.797Z,19.40
2023-02-25T09:54:21.056Z,19.15
2023-02-25T09:55:31.840Z,19.98
2023-02-25T09:56:35.904Z,23.15
2023-02-25T09:57:41.397Z,40.58
2023-02-25T09:58:48.632Z,38.22
2023-02-25T09:59:53.635Z,115.38
2023-02-25T10:01:01.703Z,156.25
2023-02-25T10:02:22.854Z,123.55
2023-02-25T10:03:50.550Z,117.30
2023-02-25T10:05:19.283Z,86.53
2023-02-25T10:06:49.326Z,62.25
2023-02-25T10:08:10.820Z,45.45
2023-02-25T10:09:26.973Z,41.20
2023-02-25T10:10:44.784Z,36.25
2023-02-25T10:11:53.541Z,36.67
2023-02-25T10:13:14.357Z,33.90
2023-02-25T10:14:31.737Z,33.88
2023-02-25T10:16:08.122Z,35.40
2023-02-25T10:17:32.248Z,32.65
2023-02-25T10:18:49.738Z,35.40
2023-02-25T10:20:30.731Z,33.17
2023-02-25T10:21:45.106Z,31.45
2023-02-25T10:23:00.116Z,33.00
2023-02-25T10:24:23.176Z,32.00
2023-02-25T10:25:30.196Z,30.58
2023-02-25T10:26:41.405Z,25.23
2023-02-25T10:29:02.089Z,29.55
2023-02-25T10:30:36.201Z,42.25
2023-02-25T10:31:44.068Z,36.30
2023-02-25T10:32:51.922Z,33.45
2023-02-25T10:33:55.615Z,30.98
2023-02-25T10:35:21.674Z,34.35
2023-02-25T10:36:39.432Z,32.33
2023-02-25T10:37:41.992Z,37.53
2023-02-25T10:38:50.501Z,29.38
2023-02-25T10:39:58.655Z,27.50
2023-02-25T10:41:01.392Z,31.38
2023-02-25T10:42:04.833Z,30.15
2023-02-25T10:43:21.054Z,33.72
2023-02-25T10:44:23.535Z,29.17
2023-02-25T10:45:31.430Z,29.40
2023-02-25T10:46:41.644Z,30.30
2023-02-25T10:47:48.962Z,30.58
2023-02-25T10:48:57.592Z,26.60
2023-02-25T10:50:19.299Z,27.15
2023-02-25T10:51:22.155Z,30.10
2023-02-25T10:52:26.522Z,26.70
2023-02-25T10:53:29.012Z,26.58
2023-02-25T10:54:44.662Z,27.10
2023-02-25T10:55:52.219Z,28.92
2023-02-25T10:56:55.482Z,27.88
2023-02-25T10:57:58.514Z,26.15
2023-02-25T10:59:09.293Z,25.40
2023-02-25T11:00:29.056Z,27.95
2023-02-25T11:01:42.681Z,25.75
2023-02-25T11:02:45.692Z,29.17
2023-02-25T11:04:00.210Z,26.95
2023-02-25T11:05:02.578Z,29.83
2023-02-25T11:06:11.292Z,25.15
2023-02-25T11:07:25.703Z,23.85
2023-02-25T11:08:32.373Z,28.52
2023-02-25T11:09:36.895Z,21.67
2023-02-25T11:10:39.481Z,25.25
2023-02-25T11:11:55.003Z,26.23
2023-02-25T11:12:58.321Z,23.40
2023-02-25T11:14:14.860Z,26.30
2023-02-25T11:15:44.347Z,38.50
2023-02-25T11:16:47.402Z,20.23
2023-02-25T11:17:50.170Z,21.58
2023-02-25T11:18:59.069Z,28.17
2023-02-25T11:20:05.881Z,19.02
2023-02-25T11:21:13.521Z,23.63
2023-02-25T11:22:29.191Z,23.90
2023-02-25T11:23:38.426Z,24.40
2023-02-25T11:24:42.863Z,21.08
2023-02-25T11:25:45.460Z,20.00
2023-02-25T11:26:51.082Z,21.20
2023-02-25T11:27:58.509Z,22.90
2023-02-25T11:29:06.391Z,21.33
2023-02-25T11:30:14.652Z,20.95
2023-02-25T11:31:29.452Z,18.98
2023-02-25T11:32:33.600Z,20.92
2023-02-25T11:33:40.591Z,20.27
2023-02-25T11:34:55.088Z,21.83
2023-02-25T11:36:02.483Z,21.95
2023-02-25T11:37:40.760Z,24.95
2023-02-25T11:38:44.387Z,37.63
2023-02-25T11:39:56.558Z,36.85
2023-02-25T11:40:58.957Z,28.38
2023-02-25T11:42:24.130Z,26.48
2023-02-25T11:43:33.994Z,28.25
2023-02-25T11:44:43.030Z,32.30
2023-02-25T11:45:52.942Z,27.33
2023-02-25T11:47:14.239Z,30.77
2023-02-25T11:48:21.805Z,29.58
2023-02-25T11:49:47.399Z,26.30
2023-02-25T11:51:16.584Z,25.15
2023-02-25T11:52:35.458Z,29.30
2023-02-25T11:53:44.320Z,26.10
2023-02-25T11:55:02.690Z,29.30
2023-02-25T11:56:10.109Z,24.48
2023-02-25T11:57:20.600Z,28.77
2023-02-25T11:58:54.548Z,28.35
2023-02-25T12:00:25.672Z,28.25
2023-02-25T12:01:43.804Z,27.83
2023-02-25T12:03:03.089Z,29.70
2023-02-25T12:04:58.215Z,26.15
2023-02-25T12:06:32.307Z,26.55
2023-02-25T12:08:23.844Z,28.50
2023-02-25T12:09:58.009Z,26.20
2023-02-25T12:11:27.076Z,24.70
2023-02-25T12:12:32.847Z,26.80
2023-02-25T12:13:56.402Z,24.38
2023-02-25T12:15:26.092Z,23.02
2023-02-25T12:16:31.342Z,23.80
2023-02-25T12:18:02.519Z,21.25
2023-02-25T12:19:20.464Z,16.25
2023-02-25T12:20:50.288Z,23.02
2023-02-25T12:22:13.051Z,25.65
2023-02-25T12:23:42.023Z,26.35
2023-02-25T12:24:59.126Z,25.20
2023-02-25T12:26:16.948Z,21.60
2023-02-25T12:27:43.485Z,21.00
2023-02-25T12:29:04.308Z,21.15
2023-02-25T12:30:34.682Z,23.92
2023-02-25T12:31:56.224Z,24.98
2023-02-25T12:34:41.077Z,29.27
2023-02-25T12:35:49.429Z,24.75
2023-02-25T12:37:47.235Z,21.95
2023-02-25T12:39:14.313Z,22.00
2023-02-25T12:40:49.685Z,22.90
2023-02-25T12:42:38.038Z,21.92
2023-02-25T12:43:40.504Z,24.90
2023-02-25T12:44:54.806Z,88.70
2023-02-25T12:46:33.346Z,23.60
2023-02-25T12:48:05.372Z,25.65
2023-02-25T12:49:41.067Z,26.67
2023-02-25T12:50:49.875Z,22.30
2023-02-25T12:52:07.649Z,23.85
2023-02-25T12:53:48.794Z,22.08
2023-02-25T12:55:26.570Z,22.98
2023-02-25T12:56:56.246Z,21.30
2023-02-25T12:58:35.527Z,21.30
2023-02-25T12:59:46.083Z,24.13
2023-02-25T13:01:06.287Z,29.60
2023-02-25T13:02:38.113Z,23.58
2023-02-25T13:03:54.418Z,21.77
2023-02-25T13:05:14.199Z,20.88
2023-02-25T13:06:57.374Z,21.38
2023-02-25T13:08:15.684Z,19.77
2023-02-25T13:09:36.624Z,18.90
2023-02-25T13:10:59.640Z,22.05
2023-02-25T13:12:26.885Z,22.77
2023-02-25T13:13:51.142Z,19.90
2023-02-25T13:15:11.889Z,18.90
2023-02-25T13:16:36.577Z,23.45
2023-02-25T13:18:11.452Z,20.60
2023-02-25T13:19:19.835Z,21.75
2023-02-25T13:20:49.702Z,22.50
2023-02-25T13:22:31.431Z,21.23
2023-02-25T13:23:59.406Z,19.98
2023-02-25T13:25:19.866Z,21.52
2023-02-25T13:26:40.290Z,18.55
2023-02-25T13:27:56.371Z,19.75
2023-02-25T13:29:20.075Z,18.15
2023-02-25T13:30:58.141Z,21.15
2023-02-25T13:32:40.089Z,17.88
2023-02-25T13:34:20.260Z,28.80
2023-02-25T13:35:38.227Z,27.30
2023-02-25T13:37:00.582Z,24.92
2023-02-25T13:38:16.538Z,24.40
2023-02-25T13:39:37.462Z,26.98
2023-02-25T13:41:00.695Z,23.60
2023-02-25T13:42:20.742Z,31.85
2023-02-25T13:43:56.303Z,27.58
2023-02-25T13:45:07.821Z,30.75
2023-02-25T13:46:29.073Z,27.25
2023-02-25T13:47:50.432Z,29.25
2023-02-25T13:49:03.917Z,29.58
2023-02-25T13:50:33.832Z,24.10
2023-02-25T13:51:47.098Z,27.13
2023-02-25T13:53:35.959Z,26.25
2023-02-25T13:55:08.219Z,25.58
2023-02-25T13:56:28.845Z,26.75
2023-02-25T13:58:14.716Z,27.05
2023-02-25T13:59:58.274Z,23.25
2023-02-25T14:01:30.031Z,25.17
2023-02-25T14:03:03.798Z,22.75
2023-02-25T14:04:40.783Z,20.95
2023-02-25T14:06:10.441Z,23.98
2023-02-25T14:07:41.593Z,19.30
2023-02-25T14:09:02.630Z,24.60
2023-02-25T14:10:14.854Z,21.95
2023-02-25T14:11:43.463Z,22.63
2023-02-25T14:13:06.945Z,20.85
2023-02-25T14:14:37.228Z,34.13
2023-02-25T14:16:10.050Z,32.75
2023-02-25T14:17:32.506Z,29.58
2023-02-25T14:19:07.591Z,26.98
2023-02-25T14:20:29.183Z,27.00
2023-02-25T14:21:53.062Z,24.45
2023-02-25T14:23:28.276Z,23.13
2023-02-25T14:24:46.089Z,24.13
2023-02-25T14:26:17.380Z,23.98
2023-02-25T14:27:47.970Z,26.50
2023-02-25T14:28:56.788Z,33.03
2023-02-25T14:30:12.255Z,36.67
2023-02-25T14:31:45.327Z,34.03
2023-02-25T14:33:14.658Z,33.88
2023-02-25T14:34:50.712Z,26.65
2023-02-25T14:36:13.581Z,25.20
2023-02-25T14:37:35.947Z,26.63
2023-02-25T14:39:27.706Z,21.58
2023-02-25T14:41:06.883Z,21.15
2023-02-25T14:42:40.689Z,30.15
2023-02-25T14:43:46.424Z,24.70
2023-02-25T14:44:49.073Z,24.75
2023-02-25T14:46:17.298Z,24.20
2023-02-25T14:47:27.760Z,21.27
2023-02-25T14:48:49.768Z,25.30
2023-02-25T14:50:14.108Z,25.08
2023-02-25T14:51:37.788Z,26.38
2023-02-25T14:52:50.912Z,23.67
2023-02-25T14:54:33.644Z,21.67
2023-02-25T14:56:20.299Z,21.75
2023-02-25T14:57:51.334Z,21.17
2023-02-25T14:58:59.838Z,26.00
2023-02-25T15:00:50.040Z,59.25
2023-02-25T15:02:02.746Z,59.72
2023-02-25T15:03:53.360Z,49.70
2023-02-25T15:05:22.009Z,49.05
2023-02-25T15:06:37.001Z,62.60
2023-02-25T15:07:48.748Z,52.88
2023-02-25T15:09:23.655Z,52.97
2023-02-25T15:10:44.899Z,41.65
2023-02-25T15:12:06.904Z,34.22
2023-02-25T15:13:33.020Z,34.00
2023-02-25T15:14:50.649Z,31.63
2023-02-25T15:16:08.292Z,32.53
2023-02-25T15:17:38.397Z,38.08